createdAt,value
2017-11-13T00:00:13.298Z,5.68
2017-11-13T00:01:58.741Z,5.68
2017-11-13T00:02:58.746Z,5.81
2017-11-13T00:03:58.780Z,5.79
2017-11-13T00:04:58.778Z,5.72
2017-11-13T00:05:58.811Z,5.81
2017-11-13T00:06:58.814Z,5.65
2017-11-13T00:07:58.821Z,5.65
2017-11-13T00:08:58.848Z,5.65
2017-11-13T00:09:58.859Z,5.65
2017-11-13T00:11:13.479Z,5.67
2017-11-13T00:11:58.896Z,5.67
2017-11-13T00:12:58.930Z,5.65
2017-11-13T00:13:58.948Z,5.54
2017-11-13T00:16:58.986Z,5.49
2017-11-13T00:18:13.596Z,5.51
2017-11-13T00:19:13.607Z,5.46
2017-11-13T00:19:59.030Z,5.45
2017-11-13T00:20:59.057Z,5.53
2017-11-13T00:21:59.061Z,5.46
2017-11-13T00:22:59.086Z,5.56
2017-11-13T00:23:59.086Z,5.54
2017-11-13T00:25:58.814Z,5.58
2017-11-13T00:27:13.753Z,5.53
2017-11-13T00:27:59.168Z,5.49
2017-11-13T00:28:59.166Z,5.46
2017-11-13T00:29:59.217Z,5.48
2017-11-13T00:30:59.232Z,5.43
2017-11-13T00:31:59.235Z,5.46
2017-11-13T00:32:59.245Z,5.42
2017-11-13T00:34:13.856Z,5.48
2017-11-13T00:34:59.270Z,5.56
2017-11-13T00:35:59.306Z,5.42
2017-11-13T00:36:59.328Z,5.51
2017-11-13T00:37:59.316Z,5.46
2017-11-13T00:39:59.034Z,5.51
2017-11-13T00:40:59.373Z,5.51
2017-11-13T00:41:59.382Z,5.49
2017-11-13T00:43:14.005Z,5.49
2017-11-13T00:43:59.106Z,5.49
2017-11-13T00:44:59.429Z,5.53
2017-11-13T00:45:59.467Z,5.48
2017-11-13T00:46:59.481Z,5.53
2017-11-13T00:47:59.497Z,5.49
2017-11-13T00:48:59.521Z,5.48
2017-11-13T00:49:59.205Z,5.54
2017-11-13T00:51:14.141Z,5.6
2017-11-13T00:51:59.545Z,5.54
2017-11-13T00:52:59.578Z,5.6
2017-11-13T00:53:59.588Z,5.56
2017-11-13T00:55:59.638Z,5.49
2017-11-13T00:56:59.648Z,5.54
2017-11-13T00:57:59.658Z,5.54
2017-11-13T00:59:14.273Z,5.56
2017-11-13T00:59:59.683Z,5.56
2017-11-13T01:00:59.699Z,5.56
2017-11-13T01:01:59.719Z,5.51
2017-11-13T01:02:59.742Z,5.53
2017-11-13T01:03:59.748Z,5.45
2017-11-13T01:05:14.365Z,5.57
2017-11-13T01:05:59.796Z,5.49
2017-11-13T01:06:59.809Z,5.58
2017-11-13T01:07:59.866Z,5.45
2017-11-13T01:08:59.831Z,5.46
2017-11-13T01:09:59.857Z,5.54
2017-11-13T01:10:59.892Z,5.51
2017-11-13T01:12:14.491Z,5.57
2017-11-13T01:12:59.911Z,5.51
2017-11-13T01:14:14.525Z,5.57
2017-11-13T01:14:59.972Z,5.45
2017-11-13T01:15:59.964Z,5.43
2017-11-13T01:16:59.971Z,5.4
2017-11-13T01:17:59.975Z,5.4
2017-11-13T01:18:59.998Z,5.53
2017-11-13T01:20:00.033Z,5.42
2017-11-13T01:20:59.718Z,5.36
2017-11-13T01:22:00.067Z,5.45
2017-11-13T01:23:00.063Z,5.4
2017-11-13T01:24:00.084Z,5.38
2017-11-13T01:25:00.096Z,5.36
2017-11-13T01:26:00.134Z,5.35
2017-11-13T01:27:00.145Z,5.4
2017-11-13T01:28:00.156Z,5.35
2017-11-13T01:29:00.153Z,5.36
2017-11-13T01:30:00.188Z,5.31
2017-11-13T01:31:00.200Z,5.35
2017-11-13T01:31:59.899Z,5.27
2017-11-13T01:33:00.217Z,5.28
2017-11-13T01:35:00.282Z,5.31
2017-11-13T01:36:00.291Z,5.3
2017-11-13T01:37:00.316Z,5.2
2017-11-13T01:38:00.317Z,5.13
2017-11-13T01:39:00.329Z,5.1
2017-11-13T01:40:00.349Z,5.12
2017-11-13T01:41:00.037Z,5.1
2017-11-13T01:42:00.385Z,5.13
2017-11-13T01:43:15.002Z,5.1
2017-11-13T01:44:15.018Z,5.07
2017-11-13T01:45:00.432Z,5.03
2017-11-13T01:46:15.041Z,5.1
2017-11-13T01:47:00.135Z,5.02
2017-11-13T01:48:00.476Z,4.97
2017-11-13T01:49:00.489Z,5.09
2017-11-13T01:50:00.504Z,4.97
2017-11-13T01:51:00.525Z,5.03
2017-11-13T01:52:15.141Z,4.88
2017-11-13T01:53:00.557Z,4.97
2017-11-13T01:54:00.571Z,4.89
2017-11-13T01:55:00.596Z,4.8
2017-11-13T01:56:00.594Z,4.77
2017-11-13T01:57:00.302Z,4.86
2017-11-13T01:58:15.248Z,4.78
2017-11-13T01:59:00.348Z,4.78
2017-11-13T02:00:00.656Z,4.88
2017-11-13T02:02:15.308Z,4.92
2017-11-13T02:03:00.407Z,4.97
2017-11-13T02:04:00.730Z,4.92
2017-11-13T02:05:00.742Z,4.99
2017-11-13T02:07:00.460Z,5.1
2017-11-13T02:08:00.785Z,5.15
2017-11-13T02:09:00.806Z,5.03
2017-11-13T02:10:15.444Z,5.09
2017-11-13T02:12:00.853Z,5.13
2017-11-13T02:14:00.900Z,5.17
2017-11-13T02:15:00.916Z,5.22
2017-11-13T02:17:00.944Z,5.21
2017-11-13T02:18:15.566Z,5.1
2017-11-13T02:19:00.985Z,5.18
2017-11-13T02:20:01.022Z,5.27
2017-11-13T02:21:01.009Z,5.21
2017-11-13T02:22:00.712Z,5.21
2017-11-13T02:23:01.042Z,5.3
2017-11-13T02:24:01.054Z,5.25
2017-11-13T02:25:15.355Z,5.24
2017-11-13T02:26:01.100Z,5.3
2017-11-13T02:27:01.104Z,5.3
2017-11-13T02:28:01.125Z,5.27
2017-11-13T02:29:01.146Z,5.3
2017-11-13T02:30:01.176Z,5.25
2017-11-13T02:31:01.186Z,5.36
2017-11-13T02:32:01.200Z,5.31
2017-11-13T02:33:01.208Z,5.31
2017-11-13T02:34:15.818Z,5.38
2017-11-13T02:35:01.229Z,5.42
2017-11-13T02:36:01.255Z,5.38
2017-11-13T02:37:01.262Z,5.36
2017-11-13T02:38:01.287Z,5.25
2017-11-13T02:39:01.306Z,5.35
2017-11-13T02:41:01.338Z,5.36
2017-11-13T02:42:15.962Z,5.28
2017-11-13T02:43:01.368Z,5.21
2017-11-13T02:44:01.380Z,5.3
2017-11-13T02:45:01.397Z,5.24
2017-11-13T02:46:01.424Z,5.21
2017-11-13T02:47:01.118Z,5.21
2017-11-13T02:48:01.505Z,5.31
2017-11-13T02:49:16.074Z,5.28
2017-11-13T02:50:01.484Z,5.33
2017-11-13T02:52:16.118Z,5.33
2017-11-13T02:53:01.532Z,5.24
2017-11-13T02:54:01.550Z,5.28
2017-11-13T02:55:01.555Z,5.35
2017-11-13T02:56:01.586Z,5.25
2017-11-13T02:57:01.606Z,5.28
2017-11-13T02:58:01.618Z,5.36
2017-11-13T02:59:01.299Z,5.17
2017-11-13T03:00:01.645Z,5.21
2017-11-13T03:01:01.666Z,5.39
2017-11-13T03:02:01.694Z,5.38
2017-11-13T03:03:01.710Z,5.27
2017-11-13T03:04:16.317Z,5.24
2017-11-13T03:05:01.723Z,5.25
2017-11-13T03:06:01.746Z,5.33
2017-11-13T03:07:01.766Z,5.3
2017-11-13T03:08:01.765Z,5.28
2017-11-13T03:09:01.778Z,5.25
2017-11-13T03:10:01.816Z,5.24
2017-11-13T03:11:16.420Z,5.21
2017-11-13T03:12:01.846Z,5.18
2017-11-13T03:13:01.861Z,5.15
2017-11-13T03:14:01.866Z,5.21
2017-11-13T03:15:01.888Z,5.27
2017-11-13T03:16:01.905Z,5.21
2017-11-13T03:17:01.920Z,5.2
2017-11-13T03:18:01.943Z,5.3
2017-11-13T03:19:01.967Z,5.24
2017-11-13T03:20:01.979Z,5.31
2017-11-13T03:21:16.588Z,5.31
2017-11-13T03:22:01.997Z,5.3
2017-11-13T03:23:02.019Z,5.24
2017-11-13T03:24:02.033Z,5.27
2017-11-13T03:25:02.056Z,5.28
2017-11-13T03:26:02.079Z,5.3
2017-11-13T03:27:02.097Z,5.27
2017-11-13T03:28:02.088Z,5.33
2017-11-13T03:29:02.111Z,5.33
2017-11-13T03:30:02.146Z,5.27
2017-11-13T03:31:02.161Z,5.3
2017-11-13T03:33:02.225Z,5.24
2017-11-13T03:34:01.881Z,5.24
2017-11-13T03:35:01.885Z,5.35
2017-11-13T03:36:02.219Z,5.25
2017-11-13T03:37:16.839Z,5.24
2017-11-13T03:38:02.259Z,5.3
2017-11-13T03:39:02.271Z,5.31
2017-11-13T03:40:02.317Z,5.22
2017-11-13T03:41:02.318Z,5.2
2017-11-13T03:42:02.311Z,5.24
2017-11-13T03:43:02.353Z,5.33
2017-11-13T03:44:02.354Z,5.3
2017-11-13T03:45:16.967Z,5.31
2017-11-13T03:46:02.402Z,5.33
2017-11-13T03:47:02.399Z,5.33
2017-11-13T03:48:02.417Z,5.27
2017-11-13T03:49:02.450Z,5.31
2017-11-13T03:50:17.059Z,5.33
2017-11-13T03:51:02.143Z,5.24
2017-11-13T03:52:02.157Z,5.25
2017-11-13T03:53:17.096Z,5.3
2017-11-13T03:54:02.526Z,5.31
2017-11-13T03:55:02.535Z,5.22
2017-11-13T03:56:02.552Z,5.33
2017-11-13T03:57:02.554Z,5.3
2017-11-13T03:58:02.588Z,5.25
2017-11-13T03:59:02.602Z,5.28
2017-11-13T04:01:02.314Z,5.15
2017-11-13T04:02:02.648Z,5.18
2017-11-13T04:03:02.668Z,5.18
2017-11-13T04:04:02.672Z,5.21
2017-11-13T04:05:02.693Z,5.13
2017-11-13T04:06:02.718Z,5.12
2017-11-13T04:07:02.738Z,5.15
2017-11-13T04:08:02.739Z,5.09
2017-11-13T04:09:17.355Z,5.21
2017-11-13T04:10:02.780Z,5.22
2017-11-13T04:11:02.797Z,5.25
2017-11-13T04:13:02.811Z,5.2
2017-11-13T04:14:02.832Z,5.12
2017-11-13T04:15:02.878Z,5.18
2017-11-13T04:16:02.872Z,5.17
2017-11-13T04:17:03.054Z,5.2
2017-11-13T04:18:02.904Z,5.03
2017-11-13T04:20:02.948Z,5.06
2017-11-13T04:21:02.962Z,5.02
2017-11-13T04:22:02.970Z,5.18
2017-11-13T04:23:02.983Z,5.18
2017-11-13T04:24:17.607Z,5.09
2017-11-13T04:25:03.026Z,5.18
2017-11-13T04:26:03.037Z,5.1
2017-11-13T04:27:03.058Z,5.15
2017-11-13T04:28:03.071Z,5.18
2017-11-13T04:29:03.078Z,5.12
2017-11-13T04:30:03.111Z,5.07
2017-11-13T04:31:03.110Z,5.15
2017-11-13T04:32:03.133Z,5.04
2017-11-13T04:33:03.155Z,5
2017-11-13T04:34:03.177Z,5.03
2017-11-13T04:35:03.186Z,5.06
2017-11-13T04:36:02.867Z,5.1
2017-11-13T04:37:03.213Z,5.17
2017-11-13T04:38:03.244Z,5.2
2017-11-13T04:39:03.244Z,5.13
2017-11-13T04:40:03.252Z,5.1
2017-11-13T04:41:03.274Z,5.12
2017-11-13T04:42:03.298Z,5.15
2017-11-13T04:43:02.971Z,5.12
2017-11-13T04:44:17.920Z,5.25
2017-11-13T04:45:03.338Z,5.24
2017-11-13T04:46:17.953Z,5.27
2017-11-13T04:47:03.369Z,5.12
2017-11-13T04:48:03.390Z,5.12
2017-11-13T04:49:03.067Z,5.17
2017-11-13T04:50:03.416Z,5.21
2017-11-13T04:51:03.427Z,5.18
2017-11-13T04:52:03.463Z,5.13
2017-11-13T04:53:03.488Z,5.12
2017-11-13T04:54:03.175Z,5.12
2017-11-13T04:56:18.120Z,5.12
2017-11-13T04:57:03.526Z,5.13
2017-11-13T04:58:03.230Z,5.12
2017-11-13T04:59:03.561Z,5.12
2017-11-13T05:00:03.566Z,5.06
2017-11-13T05:01:03.279Z,5.1
2017-11-13T05:02:03.617Z,5
2017-11-13T05:03:18.220Z,5.1
2017-11-13T05:04:03.630Z,5.15
2017-11-13T05:07:03.707Z,5.06
2017-11-13T05:08:03.703Z,5.06
2017-11-13T05:09:18.332Z,5.02
2017-11-13T05:10:03.750Z,5.02
2017-11-13T05:11:03.750Z,5.13
2017-11-13T05:12:18.374Z,5.06
2017-11-13T05:13:04.139Z,5.09
2017-11-13T05:14:03.802Z,4.92
2017-11-13T05:15:03.808Z,4.94
2017-11-13T05:16:03.840Z,4.92
2017-11-13T05:17:03.850Z,5.09
2017-11-13T05:18:03.897Z,4.96
2017-11-13T05:19:04.229Z,5.03
2017-11-13T05:20:03.572Z,4.89
2017-11-13T05:21:03.943Z,5.02
2017-11-13T05:22:03.600Z,4.94
2017-11-13T05:23:03.949Z,4.89
2017-11-13T05:24:03.943Z,4.96
2017-11-13T05:25:03.983Z,4.99
2017-11-13T05:27:04.007Z,5.09
2017-11-13T05:28:18.619Z,5.07
2017-11-13T05:29:04.039Z,5.15
2017-11-13T05:30:03.741Z,5.09
2017-11-13T05:31:04.057Z,5.03
2017-11-13T05:33:03.778Z,5.06
2017-11-13T05:34:03.828Z,5.15
2017-11-13T05:35:18.746Z,5.1
2017-11-13T05:36:18.744Z,5.12
2017-11-13T05:37:04.172Z,5.22
2017-11-13T05:38:04.193Z,5.21
2017-11-13T05:39:04.187Z,5.17
2017-11-13T05:40:04.202Z,5.17
2017-11-13T05:41:04.224Z,5.2
2017-11-13T05:42:04.257Z,5.22
2017-11-13T05:43:04.274Z,5.2
2017-11-13T05:44:18.881Z,5.15
2017-11-13T05:45:04.297Z,5.17
2017-11-13T05:46:04.305Z,5.2
2017-11-13T05:47:04.327Z,5.18
2017-11-13T05:49:04.356Z,5.12
2017-11-13T05:50:04.370Z,5.27
2017-11-13T05:51:04.387Z,5.2
2017-11-13T05:52:04.390Z,5.22
2017-11-13T05:53:04.424Z,5.22
2017-11-13T05:54:04.452Z,5.22
2017-11-13T05:55:04.123Z,5.21
2017-11-13T05:56:04.474Z,5.28
2017-11-13T05:57:04.484Z,5.35
2017-11-13T05:58:04.498Z,5.28
2017-11-13T05:59:18.795Z,5.28
2017-11-13T06:00:04.522Z,5.28
2017-11-13T06:01:04.539Z,5.31
2017-11-13T06:02:04.232Z,5.25
2017-11-13T06:03:04.605Z,5.15
2017-11-13T06:04:04.606Z,5.3
2017-11-13T06:05:04.618Z,5.3
2017-11-13T06:06:04.632Z,5.28
2017-11-13T06:07:04.656Z,5.28
2017-11-13T06:08:04.666Z,5.27
2017-11-13T06:09:04.678Z,5.33
2017-11-13T06:11:04.698Z,5.33
2017-11-13T06:12:04.746Z,5.35
2017-11-13T06:13:04.750Z,5.39
2017-11-13T06:14:04.778Z,5.35
2017-11-13T06:15:04.776Z,5.4
2017-11-13T06:16:04.798Z,5.33
2017-11-13T06:17:04.814Z,5.4
2017-11-13T06:18:04.813Z,5.38
2017-11-13T06:20:04.522Z,5.43
2017-11-13T06:21:04.543Z,5.45
2017-11-13T06:22:04.577Z,5.42
2017-11-13T06:23:04.910Z,5.48
2017-11-13T06:24:04.939Z,5.49
2017-11-13T06:25:04.931Z,5.48
2017-11-13T06:26:04.965Z,5.45
2017-11-13T06:27:04.968Z,5.48
2017-11-13T06:29:05.001Z,5.46
2017-11-13T06:30:05.010Z,5.51
2017-11-13T06:31:19.642Z,5.49
2017-11-13T06:32:04.737Z,5.42
2017-11-13T06:33:05.076Z,5.49
2017-11-13T06:34:05.087Z,5.49
2017-11-13T06:36:05.111Z,5.45
2017-11-13T06:37:05.131Z,5.39
2017-11-13T06:38:04.821Z,5.46
2017-11-13T06:39:05.165Z,5.45
2017-11-13T06:40:05.193Z,5.42
2017-11-13T06:41:04.873Z,5.38
2017-11-13T06:42:05.209Z,5.61
2017-11-13T06:43:19.838Z,5.46
2017-11-13T06:44:05.256Z,5.51
2017-11-13T06:46:05.278Z,5.48
2017-11-13T06:48:05.305Z,5.4
2017-11-13T06:49:05.008Z,5.46
2017-11-13T06:50:05.016Z,5.4
2017-11-13T06:51:05.366Z,5.42
2017-11-13T06:52:05.057Z,5.45
2017-11-13T06:53:05.065Z,5.38
2017-11-13T06:54:05.400Z,5.46
2017-11-13T06:55:05.421Z,5.54
2017-11-13T06:56:05.440Z,5.54
2017-11-13T06:57:05.462Z,5.58
2017-11-13T06:58:05.482Z,5.61
2017-11-13T06:59:05.487Z,5.46
2017-11-13T07:00:05.179Z,5.53
2017-11-13T07:01:05.535Z,5.51
2017-11-13T07:02:05.527Z,5.48
2017-11-13T07:03:20.147Z,5.51
2017-11-13T07:04:05.570Z,5.54
2017-11-13T07:05:05.567Z,5.65
2017-11-13T07:06:05.589Z,5.54
2017-11-13T07:07:05.605Z,5.63
2017-11-13T07:08:20.229Z,5.65
2017-11-13T07:09:05.660Z,5.56
2017-11-13T07:10:20.258Z,5.74
2017-11-13T07:11:05.677Z,5.68
2017-11-13T07:12:05.704Z,5.71
2017-11-13T07:13:05.396Z,5.65
2017-11-13T07:14:05.747Z,5.75
2017-11-13T07:15:05.757Z,5.82
2017-11-13T07:17:05.781Z,5.71
2017-11-13T07:18:05.798Z,5.68
2017-11-13T07:19:20.416Z,5.71
2017-11-13T07:20:05.510Z,5.65
2017-11-13T07:21:05.850Z,5.68
2017-11-13T07:22:05.854Z,5.64
2017-11-13T07:23:05.555Z,5.65
2017-11-13T07:25:05.905Z,5.72
2017-11-13T07:26:05.700Z,5.74
2017-11-13T07:27:05.607Z,5.72
2017-11-13T07:28:05.973Z,5.74
2017-11-13T07:29:05.981Z,5.83
2017-11-13T07:30:05.352Z,5.85
2017-11-13T07:31:05.691Z,5.79
2017-11-13T07:32:05.382Z,5.76
2017-11-13T07:33:06.037Z,5.68
2017-11-13T07:34:20.648Z,5.82
2017-11-13T07:35:06.070Z,5.75
2017-11-13T07:36:20.369Z,5.81
2017-11-13T07:37:06.121Z,5.74
2017-11-13T07:38:06.115Z,5.94
2017-11-13T07:39:06.134Z,5.89
2017-11-13T07:40:05.828Z,5.86
2017-11-13T07:41:06.157Z,5.93
2017-11-13T07:42:05.864Z,5.93
2017-11-13T07:43:06.208Z,5.85
2017-11-13T07:44:05.895Z,5.91
2017-11-13T07:45:05.910Z,5.81
2017-11-13T07:46:06.283Z,5.79
2017-11-13T07:47:06.278Z,5.83
2017-11-13T07:48:06.296Z,5.82
2017-11-13T07:49:06.306Z,5.91
2017-11-13T07:50:06.421Z,5.91
2017-11-13T07:51:20.619Z,5.85
2017-11-13T07:52:20.948Z,5.9
2017-11-13T07:53:06.578Z,5.99
2017-11-13T07:54:06.386Z,6.03
2017-11-13T07:55:06.410Z,6
2017-11-13T07:56:06.100Z,6
2017-11-13T07:57:21.138Z,6.01
2017-11-13T07:58:06.136Z,5.99
2017-11-13T07:59:06.456Z,6.03
2017-11-13T08:00:06.473Z,6.09
2017-11-13T08:01:06.504Z,6.06
2017-11-13T08:04:06.538Z,5.93
2017-11-13T08:05:06.246Z,6.14
2017-11-13T08:06:20.862Z,6.06
2017-11-13T08:07:06.268Z,6.06
2017-11-13T08:08:06.625Z,6.09
2017-11-13T08:09:06.428Z,6.14
2017-11-13T08:10:06.659Z,6.08
2017-11-13T08:11:06.341Z,6.03
2017-11-13T08:12:06.695Z,6.09
2017-11-13T08:13:06.700Z,6.06
2017-11-13T08:14:06.716Z,6.09
2017-11-13T08:15:06.763Z,6.08
2017-11-13T08:16:06.429Z,6.03
2017-11-13T08:17:06.750Z,6.01
2017-11-13T08:18:06.790Z,6.04
2017-11-13T08:19:06.810Z,6.18
2017-11-13T08:20:06.832Z,6.08
2017-11-13T08:21:06.833Z,6.08
2017-11-13T08:22:21.443Z,6.08
2017-11-13T08:23:06.868Z,6.11
2017-11-13T08:24:06.903Z,6.08
2017-11-13T08:25:06.894Z,6.15
2017-11-13T08:26:06.582Z,6.17
2017-11-13T08:27:06.607Z,6.06
2017-11-13T08:28:06.621Z,6.09
2017-11-13T08:29:06.969Z,6.15
2017-11-13T08:30:06.978Z,6.08
2017-11-13T08:31:06.999Z,6.01
2017-11-13T08:32:07.010Z,6.01
2017-11-13T08:33:07.013Z,5.99
2017-11-13T08:34:07.059Z,5.96
2017-11-13T08:35:06.748Z,6.09
2017-11-13T08:36:06.746Z,6
2017-11-13T08:37:06.765Z,6.03
2017-11-13T08:38:21.708Z,5.97
2017-11-13T08:39:07.131Z,5.99
2017-11-13T08:40:07.149Z,6.09
2017-11-13T08:41:06.841Z,6.06
2017-11-13T08:42:06.861Z,6
2017-11-13T08:43:07.201Z,5.96
2017-11-13T08:44:07.211Z,5.97
2017-11-13T08:45:07.241Z,6.03
2017-11-13T08:46:21.835Z,6.09
2017-11-13T08:47:07.259Z,6.06
2017-11-13T08:48:06.955Z,6.08
2017-11-13T08:49:07.296Z,5.99
2017-11-13T08:50:07.302Z,5.94
2017-11-13T08:51:07.307Z,6.04
2017-11-13T08:52:07.328Z,5.9
2017-11-13T08:53:07.362Z,5.86
2017-11-13T08:54:21.969Z,5.83
2017-11-13T08:55:07.405Z,5.82
2017-11-13T08:56:07.101Z,5.74
2017-11-13T08:57:22.040Z,5.76
2017-11-13T08:58:07.442Z,5.74
2017-11-13T09:00:07.148Z,5.81
2017-11-13T09:01:07.494Z,5.81
2017-11-13T09:02:07.504Z,5.81
2017-11-13T09:04:06.887Z,5.83
2017-11-13T09:05:07.681Z,5.65
2017-11-13T09:06:07.252Z,5.75
2017-11-13T09:07:07.587Z,5.81
2017-11-13T09:08:07.277Z,5.76
2017-11-13T09:10:07.624Z,5.78
2017-11-13T09:11:07.332Z,5.83
2017-11-13T09:12:07.684Z,5.89
2017-11-13T09:13:07.671Z,5.94
2017-11-13T09:14:07.380Z,5.96
2017-11-13T09:15:07.406Z,6.09
2017-11-13T09:16:07.411Z,6.17
2017-11-13T09:19:22.392Z,6.08
2017-11-13T09:20:22.406Z,6.08
2017-11-13T09:21:07.831Z,6.01
2017-11-13T09:22:07.842Z,6.14
2017-11-13T09:23:07.853Z,6.12
2017-11-13T09:24:07.859Z,6.17
2017-11-13T09:25:07.881Z,6.17
2017-11-13T09:26:22.180Z,6.18
2017-11-13T09:28:08.143Z,6.21
2017-11-13T09:29:07.947Z,6.11
2017-11-13T09:31:07.347Z,6.21
2017-11-13T09:32:07.988Z,6.19
2017-11-13T09:33:07.705Z,6.09
2017-11-13T09:34:08.029Z,6.06
2017-11-13T09:35:08.047Z,6.18
2017-11-13T09:36:07.745Z,6.19
2017-11-13T09:38:08.083Z,6.3
2017-11-13T09:39:08.126Z,6.38
2017-11-13T09:40:08.129Z,6.33
2017-11-13T09:41:22.842Z,6.3
2017-11-13T09:42:08.173Z,6.41
2017-11-13T09:43:08.172Z,6.55
2017-11-13T09:44:08.205Z,6.58
2017-11-13T09:45:07.896Z,6.61
2017-11-13T09:46:08.239Z,6.58
2017-11-13T09:47:08.236Z,6.61
2017-11-13T09:48:22.859Z,6.61
2017-11-13T09:49:08.281Z,6.7
2017-11-13T09:50:07.988Z,6.77
2017-11-13T09:52:08.018Z,6.94
2017-11-13T09:53:08.355Z,6.92
2017-11-13T09:54:08.045Z,6.95
2017-11-13T09:55:08.388Z,6.95
2017-11-13T09:56:08.412Z,6.95
2017-11-13T09:57:23.030Z,6.97
2017-11-13T09:58:08.099Z,7.05
2017-11-13T09:59:08.448Z,6.94
2017-11-13T10:00:08.142Z,7.03
2017-11-13T10:01:08.482Z,6.98
2017-11-13T10:02:08.507Z,6.85
2017-11-13T10:03:08.505Z,6.92
2017-11-13T10:04:08.214Z,6.94
2017-11-13T10:05:08.236Z,6.98
2017-11-13T10:06:08.577Z,6.89
2017-11-13T10:07:08.606Z,6.87
2017-11-13T10:08:08.278Z,6.89
2017-11-13T10:09:07.973Z,6.84
2017-11-13T10:11:08.663Z,6.8
2017-11-13T10:12:08.033Z,6.79
2017-11-13T10:13:23.296Z,6.79
2017-11-13T10:14:08.701Z,6.85
2017-11-13T10:15:08.735Z,6.89
2017-11-13T10:16:08.770Z,6.81
2017-11-13T10:17:08.757Z,6.81
2017-11-13T10:18:08.457Z,6.88
2017-11-13T10:19:08.801Z,6.98
2017-11-13T10:20:08.506Z,6.92
2017-11-13T10:21:08.816Z,6.92
2017-11-13T10:22:23.451Z,6.77
2017-11-13T10:23:23.470Z,6.84
2017-11-13T10:24:08.542Z,6.89
2017-11-13T10:25:08.901Z,6.99
2017-11-13T10:26:08.898Z,7.07
2017-11-13T10:27:08.936Z,7.07
2017-11-13T10:28:08.962Z,7.09
2017-11-13T10:29:23.577Z,7.05
2017-11-13T10:30:23.579Z,6.97
2017-11-13T10:31:09.025Z,6.94
2017-11-13T10:32:09.022Z,6.94
2017-11-13T10:33:23.629Z,7.15
2017-11-13T10:34:23.788Z,7.28
2017-11-13T10:35:09.072Z,7.25
2017-11-13T10:36:08.746Z,7.24
2017-11-13T10:37:09.108Z,7.27
2017-11-13T10:38:09.101Z,7.25
2017-11-13T10:39:09.135Z,7.23
2017-11-13T10:40:23.763Z,7.39
2017-11-13T10:41:09.177Z,7.28
2017-11-13T10:42:09.200Z,7.25
2017-11-13T10:43:09.191Z,7.25
2017-11-13T10:44:23.823Z,7.35
2017-11-13T10:45:09.231Z,7.35
2017-11-13T10:46:09.252Z,7.31
2017-11-13T10:47:09.288Z,7.39
2017-11-13T10:48:09.306Z,7.39
2017-11-13T10:49:09.315Z,7.35
2017-11-13T10:50:08.997Z,7.46
2017-11-13T10:53:09.373Z,7.6
2017-11-13T10:54:09.074Z,7.6
2017-11-13T10:55:09.419Z,7.67
2017-11-13T10:56:09.110Z,7.63
2017-11-13T10:57:09.441Z,7.82
2017-11-13T10:58:09.462Z,7.61
2017-11-13T10:59:09.495Z,7.6
2017-11-13T11:00:09.497Z,7.64
2017-11-13T11:01:09.500Z,7.63
2017-11-13T11:03:09.538Z,7.63
2017-11-13T11:04:09.583Z,7.64
2017-11-13T11:06:09.380Z,7.69
2017-11-13T11:07:09.621Z,7.77
2017-11-13T11:08:09.625Z,7.72
2017-11-13T11:09:09.653Z,7.61
2017-11-13T11:10:09.345Z,7.64
2017-11-13T11:11:09.688Z,7.79
2017-11-13T11:12:09.726Z,7.92
2017-11-13T11:13:09.397Z,7.93
2017-11-13T11:14:09.749Z,7.82
2017-11-13T11:15:09.767Z,7.87
2017-11-13T11:16:24.384Z,8.01
2017-11-13T11:17:10.032Z,8.1
2017-11-13T11:18:09.810Z,8.07
2017-11-13T11:19:09.818Z,8.01
2017-11-13T11:21:09.539Z,8.02
2017-11-13T11:22:09.886Z,8.04
2017-11-13T11:23:09.903Z,7.9
2017-11-13T11:24:09.928Z,7.87
2017-11-13T11:25:09.927Z,7.89
2017-11-13T11:27:09.973Z,8.08
2017-11-13T11:28:09.992Z,8.05
2017-11-13T11:29:24.613Z,8.04
2017-11-13T11:30:10.061Z,8.15
2017-11-13T11:31:09.764Z,8.23
2017-11-13T11:32:24.667Z,8.29
2017-11-13T11:33:10.074Z,8.33
2017-11-13T11:34:10.079Z,8.33
2017-11-13T11:35:24.715Z,8.29
2017-11-13T11:36:09.811Z,8.37
2017-11-13T11:37:10.149Z,8.38
2017-11-13T11:38:10.167Z,8.37
2017-11-13T11:39:09.861Z,8.45
2017-11-13T11:40:24.479Z,8.59
2017-11-13T11:41:10.218Z,8.58
2017-11-13T11:42:10.241Z,8.47
2017-11-13T11:43:10.273Z,8.48
2017-11-13T11:45:10.289Z,8.48
2017-11-13T11:46:10.311Z,8.38
2017-11-13T11:47:10.323Z,8.37
2017-11-13T11:48:24.942Z,8.44
2017-11-13T11:49:10.397Z,8.45
2017-11-13T11:50:10.394Z,8.28
2017-11-13T11:51:10.065Z,8.19
2017-11-13T11:52:10.416Z,8.22
2017-11-13T11:53:10.473Z,8.25
2017-11-13T11:54:10.130Z,8.34
2017-11-13T11:55:10.495Z,8.29
2017-11-13T11:56:10.484Z,8.28
2017-11-13T11:57:10.521Z,8.19
2017-11-13T11:58:10.513Z,8.11
2017-11-13T12:00:25.173Z,8.19
2017-11-13T12:01:10.257Z,8.29
2017-11-13T12:02:10.276Z,8.36
2017-11-13T12:03:10.302Z,8.33
2017-11-13T12:04:25.246Z,8.33
2017-11-13T12:05:10.330Z,8.22
2017-11-13T12:06:10.670Z,8.33
2017-11-13T12:07:10.701Z,8.44
2017-11-13T12:08:10.717Z,8.4
2017-11-13T12:09:25.326Z,8.43
2017-11-13T12:10:10.745Z,8.41
2017-11-13T12:12:10.778Z,8.59
2017-11-13T12:13:10.801Z,8.77
2017-11-13T12:14:10.823Z,8.66
2017-11-13T12:15:10.516Z,8.71
2017-11-13T12:16:10.847Z,8.84
2017-11-13T12:17:10.878Z,8.77
2017-11-13T12:18:10.575Z,8.86
2017-11-13T12:19:25.510Z,8.79
2017-11-13T12:20:10.934Z,8.81
2017-11-13T12:21:10.949Z,8.77
2017-11-13T12:24:10.683Z,8.77
2017-11-13T12:25:10.697Z,8.79
2017-11-13T12:26:11.036Z,8.83
2017-11-13T12:27:11.060Z,8.94
2017-11-13T12:28:11.105Z,8.95
2017-11-13T12:29:11.102Z,9.05
2017-11-13T12:30:11.110Z,8.95
2017-11-13T12:31:11.139Z,8.99
2017-11-13T12:32:10.852Z,8.92
2017-11-13T12:33:10.854Z,8.74
2017-11-13T12:35:11.195Z,8.76
2017-11-13T12:36:11.234Z,8.77
2017-11-13T12:37:11.233Z,8.89
2017-11-13T12:38:10.966Z,8.81
2017-11-13T12:39:11.290Z,8.81
2017-11-13T12:40:11.315Z,8.81
2017-11-13T12:41:11.303Z,8.87
2017-11-13T12:42:11.337Z,8.86
2017-11-13T12:43:11.368Z,8.77
2017-11-13T12:44:11.362Z,8.83
2017-11-13T12:45:11.383Z,8.79
2017-11-13T12:46:11.426Z,8.74
2017-11-13T12:47:11.425Z,8.7
2017-11-13T12:48:11.451Z,8.62
2017-11-13T12:49:11.463Z,8.76
2017-11-13T12:50:11.488Z,8.61
2017-11-13T12:51:26.106Z,8.56
2017-11-13T12:52:11.522Z,8.47
2017-11-13T12:53:11.218Z,8.43
2017-11-13T12:54:11.558Z,8.47
2017-11-13T12:55:11.256Z,8.45
2017-11-13T12:56:11.590Z,8.43
2017-11-13T12:57:11.294Z,8.44
2017-11-13T12:58:11.315Z,8.4
2017-11-13T12:59:11.321Z,8.52
2017-11-13T13:00:11.669Z,8.45
2017-11-13T13:01:11.671Z,8.45
2017-11-13T13:02:11.716Z,8.5
2017-11-13T13:03:11.722Z,8.4
2017-11-13T13:04:11.750Z,8.43
2017-11-13T13:05:11.766Z,8.53
2017-11-13T13:06:11.448Z,8.56
2017-11-13T13:07:26.392Z,8.55
2017-11-13T13:09:11.841Z,8.66
2017-11-13T13:10:11.869Z,8.68
2017-11-13T13:11:11.552Z,8.63
2017-11-13T13:12:11.898Z,8.68
2017-11-13T13:13:11.903Z,8.63
2017-11-13T13:14:26.521Z,8.66
2017-11-13T13:15:11.943Z,8.59
2017-11-13T13:16:11.629Z,8.55
2017-11-13T13:17:11.982Z,8.58
2017-11-13T13:18:12.027Z,8.66
2017-11-13T13:19:12.016Z,8.58
2017-11-13T13:20:12.051Z,8.71
2017-11-13T13:21:12.061Z,8.7
2017-11-13T13:22:12.062Z,8.63
2017-11-13T13:23:26.689Z,8.63
2017-11-13T13:24:11.789Z,8.68
2017-11-13T13:25:12.125Z,8.68
2017-11-13T13:26:12.176Z,8.71
2017-11-13T13:27:12.177Z,8.71
2017-11-13T13:28:12.184Z,8.77
2017-11-13T13:29:12.190Z,8.68
2017-11-13T13:30:12.237Z,8.66
2017-11-13T13:31:12.238Z,8.66
2017-11-13T13:33:12.287Z,8.63
2017-11-13T13:34:26.899Z,8.59
2017-11-13T13:35:12.308Z,8.55
2017-11-13T13:36:12.340Z,8.56
2017-11-13T13:37:12.350Z,8.56
2017-11-13T13:38:12.371Z,8.55
2017-11-13T13:39:26.984Z,8.61
2017-11-13T13:40:11.759Z,8.52
2017-11-13T13:41:12.100Z,8.58
2017-11-13T13:42:12.436Z,8.55
2017-11-13T13:43:12.467Z,8.45
2017-11-13T13:44:12.464Z,8.5
2017-11-13T13:45:12.493Z,8.45
2017-11-13T13:46:12.516Z,8.55
2017-11-13T13:47:11.884Z,8.5
2017-11-13T13:48:12.547Z,8.38
2017-11-13T13:49:12.557Z,8.3
2017-11-13T13:50:12.579Z,8.41
2017-11-13T13:51:27.212Z,8.33
2017-11-13T13:52:12.630Z,8.44
2017-11-13T13:53:12.747Z,8.38
2017-11-13T13:54:27.274Z,8.43
2017-11-13T13:55:12.677Z,8.41
2017-11-13T13:56:12.364Z,8.44
2017-11-13T13:57:12.702Z,8.4
2017-11-13T13:59:12.432Z,8.28
2017-11-13T14:00:12.435Z,8.34
2017-11-13T14:01:12.790Z,8.4
2017-11-13T14:02:12.794Z,8.34
2017-11-13T14:03:12.828Z,8.34
2017-11-13T14:04:12.517Z,8.33
2017-11-13T14:05:12.875Z,8.26
2017-11-13T14:06:12.893Z,8.19
2017-11-13T14:07:12.563Z,8.11
2017-11-13T14:08:12.925Z,8.02
2017-11-13T14:09:12.929Z,8.04
2017-11-13T14:10:12.631Z,8
2017-11-13T14:11:12.965Z,8.01
2017-11-13T14:13:13.007Z,7.92
2017-11-13T14:14:13.034Z,7.85
2017-11-13T14:15:13.110Z,7.9
2017-11-13T14:16:13.063Z,7.85
2017-11-13T14:17:13.084Z,7.77
2017-11-13T14:18:12.448Z,7.74
2017-11-13T14:19:12.790Z,7.68
2017-11-13T14:21:13.139Z,7.63
2017-11-13T14:22:12.852Z,7.64